Almond, NC

5:24 PM EDT on October 23, 2019 (GMT -0400)
Stecoah Heights | | Change Station
Active Advisory: Frost Advisory

Elev 2474 ft 35.38 °N, 83.70 °W | Updated 7 seconds ago

Clear
Clear
61 °F
Feels Like 61 °F
N
0
Wind Variable Wind from West
Gusts 0.0 mph

Today
High -- | Low -- °F
--% Chance of Precip.
Yesterday
High -- | Low -- °F
Precip. -- in
Pressure 30.15 in
Visibility 10.0 miles
Clouds Clear
Dew Point 38 °F
Humidity 42%
Rainfall 0.00 in
Snow Depth Not available.
7:47 AM 6:49 PM
Waning Crescent, 24% visible
METAR KRHP 232115Z AUTO 34004KT 10SM CLR 19/00 A3015 RMK AO2 T01861002
Pressure 30.15 in
Visibility 10.0 miles
Clouds Clear
Dew Point 38 °F
Humidity 42%
Rainfall 0.00 in
Snow Depth Not available.
7:47 AM 6:49 PM
Waning Crescent, 24% visible
METAR KRHP 232115Z AUTO 34004KT 10SM CLR 19/00 A3015 RMK AO2 T01861002

Get Your Daily Forecast Email!

Thanks for signing up!

Be on the lookout for a verification email in your inbox.

You'll start receiving severe weather alerts in your inbox..

×

10-Day Weather Forecast

Almanac

Astronomy

Oct. 23, 2019 Rise Set
Actual Time
Civil Twilight
Nautical Twilight
Astronomical Twilight
Moon
Length of Visible Light
Length of Day
Tomorrow will be .
, % of the Moon is Illuminated

Today's Extremes

State Highs State Lows

Community

WunderPhotos

Category 6

Welcome to Category 6. This is the collective home for Weather Underground's featured writeups by Dr. Jeff Masters (right), Bob Henson (left), Chris Burt, and other regular contributors.

Nearby

Air Quality

  Air Quality AQ Index Pollutant
Not available.

Snow Depth

Station Depth Elevation

Earthquake Activity

City Distance Mag. Time & Date
Minimum magnitude displayed is 2.5.

Coastal Water Temperatures

Place Temperature

Stations

Nearby Weather Stations

Station Location Temp. Windchill Dew Point Humidity Wind Precip. Elev Updated Type
                   

Watches & Warnings

Frost Advisory
Issued: 2:50 PM EDT Oct. 23, 2019 – National Weather Service

... Frost advisory remains in effect from midnight tonight to 9 am
EDT Thursday...

* what... widespread low temperatures in the mid 30s will result
in frost formation.

* Where... the mountains and northern foothills of western North
Carolina, especially in the sheltered valleys.

* When... from midnight tonight to 9 am EDT Thursday.

* Impacts... frost could kill sensitive outdoor vegetation if
left uncovered.

Precautionary/preparedness actions...

Take steps now to protect tender plants from the cold.